Terminal Aerodrome Forecast
Issued by NWS

Home | Current Version | Previous Version | Text Only | Print | Product List | Glossary On
Versions: 1 2 3 4 5 6 7 8 9 10 11 12 13 14 15 16 17 18 19 20 21 22 23 24 25 26
000
FTUS46 KPDT 110037 AAA
TAFALW
TAF AMD
KALW 110037Z 1101/1124 18006KT P6SM OVC045
     FM110500 18009KT P6SM VCSH BKN025 OVC040
     FM111700 22009KT 2SM -SHSN OVC015
     FM112100 20010KT P6SM BKN020 OVC030=

USA.gov is the U.S. government's official web portal to all federal, state and local government web resources and services.